createdAt,value
2023-02-14T00:00:22.782Z,74.85
2023-02-14T00:02:52.470Z,75.01
2023-02-14T00:05:22.066Z,74.82
2023-02-14T00:07:54.264Z,75.08
2023-02-14T00:10:23.829Z,74.87
2023-02-14T00:12:53.442Z,75.10
2023-02-14T00:15:22.980Z,75.23
2023-02-14T00:17:53.079Z,75.24
2023-02-14T00:20:22.944Z,75.18
2023-02-14T00:22:55.202Z,75.20
2023-02-14T00:25:24.959Z,75.31
2023-02-14T00:27:55.690Z,75.24
2023-02-14T00:30:25.489Z,75.33
2023-02-14T00:32:55.146Z,75.46
2023-02-14T00:35:24.717Z,75.37
2023-02-14T00:37:56.933Z,75.36
2023-02-14T00:40:26.731Z,75.38
2023-02-14T00:42:56.333Z,75.59
2023-02-14T00:45:25.951Z,75.60
2023-02-14T00:47:55.580Z,75.35
2023-02-14T00:50:25.168Z,75.59
2023-02-14T00:52:57.353Z,75.39
2023-02-14T00:55:27.082Z,75.73
2023-02-14T00:57:56.975Z,75.68
2023-02-14T01:00:26.802Z,75.59
2023-02-14T01:02:58.405Z,75.66
2023-02-14T01:05:28.020Z,75.97
2023-02-14T01:08:00.311Z,75.94
2023-02-14T01:10:30.063Z,75.84
2023-02-14T01:13:01.414Z,76.00
2023-02-14T01:15:31.139Z,75.93
2023-02-14T01:18:24.167Z,76.17
2023-02-14T01:20:53.739Z,76.26
2023-02-14T01:23:25.898Z,76.09
2023-02-14T01:25:55.447Z,76.31
2023-02-14T01:28:25.049Z,76.21
2023-02-14T01:30:54.656Z,76.39
2023-02-14T01:33:24.400Z,76.53
2023-02-14T01:35:53.921Z,76.55
2023-02-14T01:38:26.112Z,76.82
2023-02-14T01:40:55.744Z,77.03
2023-02-14T01:43:27.676Z,76.98
2023-02-14T01:45:57.331Z,77.24
2023-02-14T01:48:27.713Z,77.37
2023-02-14T01:50:57.843Z,77.40
2023-02-14T01:53:31.863Z,77.56
2023-02-14T01:56:08.762Z,77.70
2023-02-14T01:58:41.448Z,77.79
2023-02-14T02:01:11.670Z,77.60
2023-02-14T02:03:44.160Z,77.76
2023-02-14T02:06:18.234Z,77.64
2023-02-14T02:08:55.098Z,77.83
2023-02-14T02:11:24.655Z,77.74
2023-02-14T02:13:54.260Z,77.95
2023-02-14T02:16:33.786Z,78.06
2023-02-14T02:19:33.479Z,78.31
2023-02-14T02:22:28.424Z,78.46
2023-02-14T02:25:03.366Z,78.28
2023-02-14T02:28:06.140Z,78.27
2023-02-14T02:31:10.754Z,78.39
2023-02-14T02:34:06.658Z,78.60
2023-02-14T02:37:11.073Z,78.45
2023-02-14T02:39:52.392Z,78.46
2023-02-14T02:42:28.190Z,78.73
2023-02-14T02:45:06.292Z,78.96
2023-02-14T02:47:40.586Z,79.01
2023-02-14T02:50:34.161Z,78.98
2023-02-14T02:53:10.719Z,79.23
2023-02-14T02:55:58.456Z,79.23
2023-02-14T02:58:31.048Z,79.59
2023-02-14T03:01:02.785Z,79.48
2023-02-14T03:03:45.699Z,79.57
2023-02-14T03:06:15.310Z,79.89
2023-02-14T03:08:47.511Z,79.73
2023-02-14T03:11:17.682Z,80.17
2023-02-14T03:14:03.559Z,80.17
2023-02-14T03:16:46.071Z,80.14
2023-02-14T03:19:34.578Z,80.27
2023-02-14T03:22:10.214Z,80.21
2023-02-14T03:24:47.714Z,80.15
2023-02-14T03:27:22.892Z,80.11
2023-02-14T03:29:59.125Z,80.64
2023-02-14T03:32:35.763Z,80.61
2023-02-14T03:35:12.737Z,80.59
2023-02-14T03:37:46.788Z,80.66
2023-02-14T03:40:22.793Z,80.77
2023-02-14T03:42:55.332Z,80.86
2023-02-14T03:45:28.340Z,81.33
2023-02-14T03:47:59.447Z,81.42
2023-02-14T03:50:31.240Z,81.51
2023-02-14T03:53:01.681Z,81.85
2023-02-14T03:55:37.720Z,82.06
2023-02-14T03:58:12.236Z,82.03
2023-02-14T04:00:43.776Z,82.17
2023-02-14T04:03:15.372Z,82.46
2023-02-14T04:05:46.792Z,82.61
2023-02-14T04:08:23.602Z,83.00
2023-02-14T04:10:56.830Z,83.15
2023-02-14T04:13:26.560Z,83.09
2023-02-14T04:15:56.217Z,83.41
2023-02-14T04:18:38.070Z,83.47
2023-02-14T04:21:08.207Z,83.60
2023-02-14T04:23:37.799Z,83.50
2023-02-14T04:26:10.363Z,83.89
2023-02-14T04:28:39.964Z,83.86
2023-02-14T04:31:11.148Z,84.11
2023-02-14T04:33:41.721Z,84.02
2023-02-14T04:36:11.508Z,84.13
2023-02-14T04:38:41.052Z,84.18
2023-02-14T04:41:13.671Z,84.54
2023-02-14T04:43:43.277Z,84.73
2023-02-14T04:46:12.989Z,84.48
2023-02-14T04:48:42.552Z,84.75
2023-02-14T04:51:12.143Z,84.53
2023-02-14T04:53:41.737Z,84.87
2023-02-14T04:56:14.062Z,84.73
2023-02-14T04:58:43.642Z,84.75
2023-02-14T05:01:13.270Z,85.04
2023-02-14T05:03:43.401Z,84.71
2023-02-14T05:06:13.073Z,85.02
2023-02-14T05:08:42.659Z,84.91
2023-02-14T05:11:14.919Z,84.86
2023-02-14T05:13:44.520Z,84.96
2023-02-14T05:16:14.127Z,85.18
2023-02-14T05:18:43.773Z,85.26
2023-02-14T05:21:13.437Z,85.25
2023-02-14T05:23:43.060Z,84.93
2023-02-14T05:26:15.266Z,85.16
2023-02-14T05:28:44.889Z,85.38
2023-02-14T05:31:14.551Z,85.31
2023-02-14T05:33:44.193Z,85.34
2023-02-14T05:36:13.999Z,85.52
2023-02-14T05:38:43.620Z,85.52
2023-02-14T05:41:15.885Z,85.62
2023-02-14T05:43:45.464Z,85.65
2023-02-14T05:46:15.093Z,85.42
2023-02-14T05:48:45.860Z,85.68
2023-02-14T05:51:15.534Z,85.47
2023-02-14T05:53:45.156Z,85.62
2023-02-14T05:56:17.369Z,85.60
2023-02-14T05:58:46.997Z,85.51
2023-02-14T06:01:16.612Z,85.27
2023-02-14T06:03:46.663Z,85.21
2023-02-14T06:06:16.259Z,85.19
2023-02-14T06:08:45.856Z,85.04
2023-02-14T06:11:18.023Z,85.04
2023-02-14T06:13:47.636Z,85.27
2023-02-14T06:16:17.361Z,85.10
2023-02-14T06:18:46.963Z,85.02
2023-02-14T06:21:16.528Z,85.21
2023-02-14T06:23:46.093Z,85.08
2023-02-14T06:26:18.298Z,85.12
2023-02-14T06:28:47.919Z,85.06
2023-02-14T06:31:20.579Z,85.05
2023-02-14T06:33:50.210Z,85.18
2023-02-14T06:36:19.815Z,85.04
2023-02-14T06:38:50.512Z,85.11
2023-02-14T06:41:22.684Z,85.38
2023-02-14T06:43:52.290Z,85.18
2023-02-14T06:46:22.228Z,85.32
2023-02-14T06:48:52.028Z,85.24
2023-02-14T06:51:21.672Z,84.90
2023-02-14T06:53:51.349Z,85.20
2023-02-14T06:56:23.809Z,85.25
2023-02-14T06:58:53.411Z,85.17
2023-02-14T07:01:23.440Z,85.09
2023-02-14T07:03:53.507Z,85.10
2023-02-14T07:06:23.290Z,84.83
2023-02-14T07:08:52.947Z,84.67
2023-02-14T07:11:25.899Z,84.78
2023-02-14T07:13:55.603Z,84.66
2023-02-14T07:16:26.027Z,84.78
2023-02-14T07:18:55.949Z,83.95
2023-02-14T07:21:25.812Z,83.40
2023-02-14T07:23:55.419Z,82.37
2023-02-14T07:26:27.691Z,81.96
2023-02-14T07:28:57.274Z,81.59
2023-02-14T07:31:27.245Z,81.70
2023-02-14T07:33:56.952Z,81.99
2023-02-14T07:36:26.657Z,81.44
2023-02-14T07:38:56.249Z,80.99
2023-02-14T07:41:28.429Z,80.30
2023-02-14T07:43:58.046Z,79.29
2023-02-14T07:46:27.690Z,78.82
2023-02-14T07:48:57.322Z,77.95
2023-02-14T07:51:26.973Z,76.87
2023-02-14T07:53:56.648Z,76.26
2023-02-14T07:56:29.151Z,75.01
2023-02-14T07:58:58.762Z,74.04
2023-02-14T08:01:28.501Z,72.55
2023-02-14T08:03:58.137Z,72.05
2023-02-14T08:06:28.697Z,70.88
2023-02-14T08:08:58.576Z,70.08
2023-02-14T08:11:43.235Z,69.52
2023-02-14T08:14:12.810Z,68.70
2023-02-14T08:16:42.773Z,67.96
2023-02-14T08:19:12.327Z,67.20
2023-02-14T08:21:42.482Z,66.33
2023-02-14T08:24:12.095Z,65.09
2023-02-14T08:26:44.268Z,63.85
2023-02-14T08:29:16.586Z,62.47
2023-02-14T08:31:47.528Z,60.66
2023-02-14T08:34:17.740Z,59.41
2023-02-14T08:36:47.590Z,58.53
2023-02-14T08:39:17.575Z,57.61
2023-02-14T08:41:49.714Z,56.59
2023-02-14T08:44:19.285Z,56.07
2023-02-14T08:46:48.940Z,55.34
2023-02-14T08:49:18.671Z,54.15
2023-02-14T08:51:48.323Z,53.57
2023-02-14T08:54:17.912Z,52.88
2023-02-14T08:56:50.171Z,51.57
2023-02-14T08:59:19.785Z,50.42
2023-02-14T09:01:49.342Z,49.32
2023-02-14T09:04:19.004Z,48.72
2023-02-14T09:06:48.598Z,48.44
2023-02-14T09:09:19.510Z,47.26
2023-02-14T09:11:51.728Z,46.26
2023-02-14T09:14:21.841Z,45.64
2023-02-14T09:16:51.521Z,45.17
2023-02-14T09:19:21.174Z,44.93
2023-02-14T09:21:50.791Z,44.69
2023-02-14T09:24:20.349Z,44.44
2023-02-14T09:26:52.520Z,43.79
2023-02-14T09:29:22.110Z,43.29
2023-02-14T09:31:51.799Z,43.18
2023-02-14T09:34:33.980Z,42.29
2023-02-14T09:37:06.258Z,42.51
2023-02-14T09:39:36.100Z,41.84
2023-02-14T09:42:35.363Z,40.60
2023-02-14T09:45:07.907Z,40.57
2023-02-14T09:47:40.223Z,40.64
2023-02-14T09:50:18.157Z,40.15
2023-02-14T09:52:50.449Z,39.78
2023-02-14T09:55:21.022Z,39.68
2023-02-14T09:58:04.135Z,39.59
2023-02-14T10:00:39.015Z,39.85
2023-02-14T10:03:24.492Z,39.57
2023-02-14T10:06:00.276Z,39.89
2023-02-14T10:08:44.461Z,40.03
2023-02-14T10:11:14.854Z,40.68
2023-02-14T10:13:50.899Z,40.52
2023-02-14T10:16:27.204Z,40.75
2023-02-14T10:19:00.091Z,40.37
2023-02-14T10:21:32.186Z,40.55
2023-02-14T10:24:08.430Z,41.00
2023-02-14T10:26:41.290Z,40.87
2023-02-14T10:29:16.975Z,41.30
2023-02-14T10:31:55.869Z,42.65
2023-02-14T10:34:31.175Z,43.17
2023-02-14T10:37:17.525Z,44.35
2023-02-14T10:40:05.822Z,45.06
2023-02-14T10:42:41.400Z,45.96
2023-02-14T10:45:21.283Z,47.24
2023-02-14T10:47:57.011Z,48.21
2023-02-14T10:50:34.429Z,48.89
2023-02-14T10:53:12.905Z,49.87
2023-02-14T10:55:49.216Z,50.37
2023-02-14T10:58:21.220Z,50.84
2023-02-14T11:01:04.779Z,51.58
2023-02-14T11:03:36.266Z,51.82
2023-02-14T11:06:06.132Z,52.24
2023-02-14T11:08:37.982Z,52.63
2023-02-14T11:11:16.732Z,52.98
2023-02-14T11:13:47.076Z,53.38
2023-02-14T11:16:26.560Z,53.72
2023-02-14T11:19:11.389Z,54.12
2023-02-14T11:21:41.823Z,54.40
2023-02-14T11:24:20.529Z,54.76
2023-02-14T11:26:53.057Z,54.83
2023-02-14T11:29:31.265Z,55.12
2023-02-14T11:32:10.472Z,55.51
2023-02-14T11:34:41.898Z,55.68
2023-02-14T11:37:21.666Z,55.79
2023-02-14T11:39:52.189Z,55.94
2023-02-14T11:42:41.699Z,56.06
2023-02-14T11:45:29.528Z,56.27
2023-02-14T11:48:34.917Z,56.38
2023-02-14T11:51:09.009Z,56.43
2023-02-14T11:53:46.579Z,56.41
2023-02-14T11:56:17.600Z,56.63
2023-02-14T11:58:51.982Z,56.81
2023-02-14T12:01:26.560Z,56.69
2023-02-14T12:04:01.758Z,56.78
2023-02-14T12:06:32.935Z,56.98
2023-02-14T12:09:14.612Z,56.84
2023-02-14T12:11:44.263Z,56.82
2023-02-14T12:14:24.595Z,56.50
2023-02-14T12:17:00.363Z,56.64
2023-02-14T12:19:38.322Z,56.47
2023-02-14T12:22:09.560Z,56.28
2023-02-14T12:24:41.503Z,56.55
2023-02-14T12:27:22.705Z,56.50
2023-02-14T12:29:55.272Z,56.55
2023-02-14T12:32:27.565Z,56.49
2023-02-14T12:35:05.979Z,56.49
2023-02-14T12:37:45.507Z,56.17
2023-02-14T12:40:24.422Z,55.98
2023-02-14T12:43:06.522Z,55.74
2023-02-14T12:45:54.475Z,55.62
2023-02-14T12:48:31.873Z,55.75
2023-02-14T12:51:09.932Z,55.52
2023-02-14T12:53:50.624Z,55.63
2023-02-14T12:56:27.705Z,55.55
2023-02-14T12:59:05.702Z,55.35
2023-02-14T13:01:58.406Z,55.20
2023-02-14T13:04:56.305Z,55.44
2023-02-14T13:07:40.264Z,55.85
2023-02-14T13:10:19.055Z,55.65
2023-02-14T13:12:55.227Z,55.56
2023-02-14T13:15:33.068Z,55.35
2023-02-14T13:18:08.144Z,55.10
2023-02-14T13:20:44.551Z,55.34
2023-02-14T13:23:20.069Z,55.28
2023-02-14T13:25:53.225Z,55.39
2023-02-14T13:28:23.041Z,55.31
2023-02-14T13:30:52.734Z,54.96
2023-02-14T13:33:28.686Z,54.94
2023-02-14T13:36:00.815Z,54.99
2023-02-14T13:38:34.802Z,54.47
2023-02-14T13:41:05.518Z,54.49
2023-02-14T13:43:52.057Z,54.41
2023-02-14T13:46:23.307Z,54.89
2023-02-14T13:49:01.032Z,54.79
2023-02-14T13:51:49.069Z,54.80
2023-02-14T13:54:32.914Z,55.29
2023-02-14T13:57:03.845Z,55.32
2023-02-14T13:59:34.974Z,55.48
2023-02-14T14:02:37.550Z,55.29
2023-02-14T14:05:48.514Z,55.18
2023-02-14T14:08:55.041Z,54.93
2023-02-14T14:12:03.947Z,54.92
2023-02-14T14:14:40.564Z,54.88
2023-02-14T14:17:28.278Z,55.05
2023-02-14T14:19:58.226Z,54.94
2023-02-14T14:22:28.308Z,54.54
2023-02-14T14:24:59.716Z,54.60
2023-02-14T14:27:33.238Z,54.75
2023-02-14T14:30:07.953Z,54.62
2023-02-14T14:32:39.416Z,54.45
2023-02-14T14:35:20.736Z,54.25
2023-02-14T14:37:54.531Z,54.14
2023-02-14T14:40:28.713Z,54.54
2023-02-14T14:43:02.518Z,54.46
2023-02-14T14:45:35.035Z,54.25
2023-02-14T14:48:11.348Z,54.14
2023-02-14T14:50:41.701Z,54.53
2023-02-14T14:53:18.303Z,54.86
2023-02-14T14:55:52.116Z,54.73
2023-02-14T14:58:37.480Z,54.76
2023-02-14T15:01:13.175Z,54.77
2023-02-14T15:03:43.137Z,54.51
2023-02-14T15:06:20.112Z,54.34
2023-02-14T15:08:51.540Z,54.01
2023-02-14T15:11:36.248Z,54.22
2023-02-14T15:14:06.271Z,54.30
2023-02-14T15:16:44.963Z,54.39
2023-02-14T15:19:21.707Z,54.63
2023-02-14T15:21:52.210Z,54.45
2023-02-14T15:24:22.556Z,54.74
2023-02-14T15:26:53.513Z,54.75
2023-02-14T15:29:25.935Z,54.87
2023-02-14T15:32:02.435Z,54.72
2023-02-14T15:34:36.113Z,54.64
2023-02-14T15:37:06.902Z,54.90
2023-02-14T15:39:39.748Z,55.06
2023-02-14T15:42:22.658Z,55.12
2023-02-14T15:44:52.226Z,55.17
2023-02-14T15:47:24.939Z,55.29
2023-02-14T15:49:54.527Z,55.41
2023-02-14T15:52:24.708Z,55.43
2023-02-14T15:54:54.340Z,55.38
2023-02-14T15:57:26.888Z,55.49
2023-02-14T15:59:56.579Z,55.55
2023-02-14T16:02:37.796Z,55.63
2023-02-14T16:05:09.243Z,55.65
2023-02-14T16:07:38.905Z,55.99
2023-02-14T16:10:24.858Z,56.34
2023-02-14T16:13:02.059Z,56.63
2023-02-14T16:15:33.634Z,56.70
2023-02-14T16:18:08.394Z,56.92
2023-02-14T16:20:45.320Z,57.25
2023-02-14T16:23:23.872Z,57.52
2023-02-14T16:25:54.080Z,57.78
2023-02-14T16:28:24.304Z,58.17
2023-02-14T16:30:57.583Z,58.54
2023-02-14T16:33:33.656Z,58.57
2023-02-14T16:36:09.246Z,58.74
2023-02-14T16:38:45.163Z,59.29
2023-02-14T16:41:19.692Z,59.33
2023-02-14T16:43:50.103Z,59.66
2023-02-14T16:46:21.960Z,59.60
2023-02-14T16:48:54.880Z,59.95
2023-02-14T16:51:26.190Z,60.18
2023-02-14T16:53:56.787Z,60.44
2023-02-14T16:56:29.522Z,60.71
2023-02-14T16:59:00.536Z,60.89
2023-02-14T17:01:32.212Z,61.03
2023-02-14T17:04:04.791Z,61.04
2023-02-14T17:06:36.091Z,61.28
2023-02-14T17:09:08.913Z,61.28
2023-02-14T17:11:41.204Z,61.46
2023-02-14T17:14:11.519Z,61.43
2023-02-14T17:16:41.457Z,61.77
2023-02-14T17:19:13.648Z,62.12
2023-02-14T17:21:43.412Z,62.34
2023-02-14T17:24:12.960Z,62.64
2023-02-14T17:26:42.581Z,62.87
2023-02-14T17:29:13.465Z,63.14
2023-02-14T17:31:44.073Z,63.51
2023-02-14T17:34:16.365Z,63.67
2023-02-14T17:36:46.001Z,63.75
2023-02-14T17:39:15.580Z,64.12
2023-02-14T17:41:45.235Z,64.53
2023-02-14T17:44:14.830Z,64.82
2023-02-14T17:46:44.553Z,64.91
2023-02-14T17:49:16.955Z,65.11
2023-02-14T17:51:46.589Z,65.37
2023-02-14T17:54:16.172Z,65.39
2023-02-14T17:56:45.751Z,65.43
2023-02-14T17:59:15.321Z,65.42
2023-02-14T18:01:45.050Z,65.61
2023-02-14T18:04:17.720Z,65.87
2023-02-14T18:06:47.697Z,65.86
2023-02-14T18:09:17.486Z,65.96
2023-02-14T18:11:47.260Z,65.98
2023-02-14T18:14:16.866Z,66.13
2023-02-14T18:16:48.433Z,66.00
2023-02-14T18:19:20.673Z,66.30
2023-02-14T18:21:50.377Z,66.50
2023-02-14T18:24:20.091Z,66.65
2023-02-14T18:26:49.748Z,66.67
2023-02-14T18:29:19.549Z,66.87
2023-02-14T18:31:49.330Z,66.98
2023-02-14T18:34:21.587Z,66.70
2023-02-14T18:36:51.130Z,66.77
2023-02-14T18:39:21.082Z,66.97
2023-02-14T18:41:50.715Z,66.88
2023-02-14T18:44:21.986Z,67.13
2023-02-14T18:46:51.686Z,67.62
2023-02-14T18:49:24.073Z,67.83
2023-02-14T18:51:54.841Z,68.03
2023-02-14T18:54:24.658Z,68.21
2023-02-14T18:56:54.360Z,68.65
2023-02-14T18:59:24.265Z,68.65
2023-02-14T19:01:54.463Z,69.00
2023-02-14T19:04:26.833Z,69.02
2023-02-14T19:06:56.557Z,69.23
2023-02-14T19:09:28.457Z,69.41
2023-02-14T19:12:00.100Z,69.27
2023-02-14T19:14:29.914Z,69.60
2023-02-14T19:16:59.468Z,69.59
2023-02-14T19:19:31.744Z,69.63
2023-02-14T19:22:01.984Z,69.55
2023-02-14T19:24:32.273Z,69.77
2023-02-14T19:27:02.252Z,69.73
2023-02-14T19:29:32.154Z,69.96
2023-02-14T19:32:02.284Z,70.03
2023-02-14T19:34:36.169Z,69.80
2023-02-14T19:37:06.502Z,69.95
2023-02-14T19:39:36.234Z,69.94
2023-02-14T19:42:06.235Z,70.00
2023-02-14T19:44:36.090Z,70.01
2023-02-14T19:47:22.809Z,70.02
2023-02-14T19:49:59.166Z,70.10
2023-02-14T19:52:29.041Z,70.03
2023-02-14T19:54:58.887Z,70.13
2023-02-14T19:57:28.730Z,70.18
2023-02-14T19:59:58.387Z,70.14
2023-02-14T20:02:28.007Z,70.36
2023-02-14T20:05:04.346Z,70.47
2023-02-14T20:07:33.959Z,70.49
2023-02-14T20:10:04.581Z,70.65
2023-02-14T20:12:34.319Z,70.81
2023-02-14T20:15:05.611Z,70.83
2023-02-14T20:17:35.427Z,70.81
2023-02-14T20:20:08.828Z,70.97
2023-02-14T20:22:38.436Z,71.17
2023-02-14T20:25:09.858Z,71.01
2023-02-14T20:27:39.774Z,71.07
2023-02-14T20:30:11.118Z,71.21
2023-02-14T20:32:40.813Z,71.37
2023-02-14T20:35:13.484Z,71.42
2023-02-14T20:37:43.285Z,71.39
2023-02-14T20:40:14.192Z,71.51
2023-02-14T20:42:43.905Z,71.61
2023-02-14T20:45:15.096Z,71.65
2023-02-14T20:47:44.785Z,72.00
2023-02-14T20:50:17.059Z,72.12
2023-02-14T20:52:46.620Z,72.02
2023-02-14T20:55:16.185Z,72.14
2023-02-14T20:57:45.765Z,72.21
2023-02-14T21:00:16.247Z,72.62
2023-02-14T21:02:46.389Z,72.78
2023-02-14T21:05:19.317Z,72.58
2023-02-14T21:07:48.886Z,73.01
2023-02-14T21:10:18.951Z,73.02
2023-02-14T21:12:49.042Z,72.92
2023-02-14T21:15:18.843Z,73.04
2023-02-14T21:17:48.419Z,73.13
2023-02-14T21:20:22.910Z,73.29
2023-02-14T21:22:52.507Z,73.48
2023-02-14T21:25:24.758Z,73.83
2023-02-14T21:27:55.433Z,73.89
2023-02-14T21:30:25.080Z,73.63
2023-02-14T21:32:54.964Z,73.67
2023-02-14T21:35:27.558Z,73.76
2023-02-14T21:37:57.202Z,73.95
2023-02-14T21:40:26.903Z,74.22
2023-02-14T21:42:56.643Z,74.24
2023-02-14T21:45:39.066Z,74.05
2023-02-14T21:48:21.149Z,74.16
2023-02-14T21:50:53.369Z,74.38
2023-02-14T21:53:23.002Z,74.49
2023-02-14T21:55:53.036Z,74.31
2023-02-14T21:58:22.622Z,74.49
2023-02-14T22:00:52.178Z,74.88
2023-02-14T22:03:22.055Z,74.94
2023-02-14T22:05:54.624Z,74.64
2023-02-14T22:08:24.603Z,74.96
2023-02-14T22:10:54.260Z,74.74
2023-02-14T22:13:23.879Z,75.01
2023-02-14T22:15:53.687Z,74.95
2023-02-14T22:18:23.460Z,75.04
2023-02-14T22:20:55.734Z,75.13
2023-02-14T22:23:27.727Z,75.26
2023-02-14T22:25:58.623Z,75.14
2023-02-14T22:28:28.215Z,75.57
2023-02-14T22:30:57.832Z,75.59
2023-02-14T22:33:27.444Z,75.52
2023-02-14T22:36:00.742Z,75.71
2023-02-14T22:38:31.001Z,75.63
2023-02-14T22:41:00.927Z,75.70
2023-02-14T22:43:30.680Z,75.84
2023-02-14T22:46:04.923Z,75.77
2023-02-14T22:48:34.945Z,75.69
2023-02-14T22:51:22.936Z,75.63
2023-02-14T22:53:53.754Z,75.76
2023-02-14T22:56:25.929Z,75.71
2023-02-14T22:58:56.984Z,75.67
2023-02-14T23:01:27.200Z,75.85
2023-02-14T23:03:57.975Z,76.01
2023-02-14T23:06:32.464Z,75.95
2023-02-14T23:09:02.210Z,76.04
2023-02-14T23:11:33.895Z,76.30
2023-02-14T23:14:15.951Z,76.18
2023-02-14T23:16:58.437Z,76.40
2023-02-14T23:19:43.382Z,76.25
2023-02-14T23:22:17.026Z,76.18
2023-02-14T23:24:48.224Z,76.59
2023-02-14T23:27:18.948Z,76.47
2023-02-14T23:29:48.634Z,76.48
2023-02-14T23:32:18.715Z,76.53
2023-02-14T23:34:48.524Z,76.59
2023-02-14T23:37:20.712Z,76.96
2023-02-14T23:39:50.697Z,77.07
2023-02-14T23:42:20.542Z,77.02
2023-02-14T23:44:50.103Z,77.13
2023-02-14T23:47:20.306Z,77.13
2023-02-14T23:49:50.122Z,77.62
2023-02-14T23:52:22.298Z,77.72
2023-02-14T23:54:51.911Z,77.81
2023-02-14T23:57:21.630Z,77.69
2023-02-14T23:59:51.189Z,77.68
